x

Central Aleutians 230nm Sw Dutch Harbor (46072) Wave Buoy

12:50pm - Tue 26th May 2015 All times are UTC.

  • Sig Wave height 14.4ft
  • Peak Period 10s
  • Average Period 7s
  • Wind
    25mph, 31mph gusts
  • Sea Temp 43°f
  • Air Temp 43°f
  • Sea Pressure 1000mb

More Historic Weather Station data

Upgrade to MSW Pro to gain access to the past 30 days of data for over 8000 Wavebouys and Weather Stations around the globe.

Join Pro

Comparision Forecast

View Surf forecast
   
Tue 05/26 12:50pm 14.5ft 10s 7s 25 31 mph 1000mb 43f 43f
11:50am 13ft 9s 7s 25 29 mph 999.1mb 43f 43f
10:50am 12ft 10s 7s 27 34 mph 998.3mb 43f 43f
9:50am 14.5ft 9s 7s 29 36 mph 997.3mb 43f 43f
8:50am 14ft 8s 7s 31 36 mph 995.6mb 43f 43f
7:50am 13.5ft 8s 7s 31 38 mph 994mb 43f 42f
6:50am 14.5ft 8s 7s 25 31 mph 992.7mb 43f 43f
5:50am 14ft 9s 7s 27 34 mph 992.6mb 43f 44f
4:50am 15ft 8s 7s 34 40 mph 993.2mb 43f 44f
3:50am 13ft 8s 6s 34 43 mph 994.5mb 43f 45f
2:50am 12.5ft 8s 6s 34 43 mph 996mb 43f 45f
1:50am 12ft 8s 6s 31 40 mph 998.4mb 43f 45f
12:50am 11ft 7s 6s 34 43 mph 1000mb 43f 45f
Mon 05/25 11:50pm 11ft 8s 6s 34 40 mph 1001.6mb 43f 45f
10:50pm 10ft 6s 6s 31 38 mph 1003.4mb 43f 44f
9:50pm 10ft 8s 6s 31 38 mph 1004.5mb 43f 43f
8:50pm 9ft 7s 6s 31 38 mph 1005.9mb 43f 43f
7:50pm 9.5ft 7s 6s 27 34 mph 1006.8mb 43f 42f
6:50pm 9ft 7s 6s 25 29 mph 1008mb 43f 42f
5:50pm 9ft 8s 6s 22 29 mph 1008.8mb 43f 43f
4:50pm 8.5ft 11s 6s 22 27 mph 1009.3mb 42f 42f
3:50pm 8ft 11s 6s 22 27 mph 1009mb 42f 42f
2:50pm 8ft 11s 6s 25 29 mph 1009.8mb 43f 41f
1:50pm 8ft 11s 6s 22 27 mph 1010.4mb 43f 41f
12:50pm 8.5ft 11s 6s 22 27 mph 1011mb 43f 42f
11:50am 9ft 10s 6s 20 25 mph 1011.4mb 43f 43f
10:50am 9ft 10s 7s 18 22 mph 1011.8mb 43f 43f
9:50am 9ft 11s 7s 16 20 mph 1012.2mb 43f 43f
8:50am 9ft 11s 7s 16 18 mph 1012.5mb 43f 43f
7:50am 9.5ft 11s 7s 16 20 mph 1012.8mb 43f 43f
6:50am 10ft 11s 7s 18 20 mph 1012.7mb 43f 42f
5:50am 9ft 10s 7s 18 22 mph 1012.1mb 43f 42f
4:50am 10ft 9s 7s 16 18 mph 1012.5mb 43f 42f
3:50am 11ft 11s 7s 16 20 mph 1012.5mb 43f 42f
2:50am 12ft 11s 7s 18 22 mph 1012.2mb 43f 42f
1:50am 12ft 12s 7s 18 22 mph 1012mb 43f 42f
12:50am 12ft 12s 7s 20 25 mph 1011.7mb 43f 43f
Sun 05/24 11:50pm 14ft 12s 8s 22 27 mph 1011.3mb 43f 43f
10:50pm 13ft 11s 8s 20 25 mph 1010.8mb 43f 42f
9:50pm 12.5ft 12s 8s 22 27 mph 1010.3mb 43f 43f
8:50pm 15ft 13s 8s 25 29 mph 1009.5mb 43f 42f
7:50pm 17.5ft 13s 8s 27 34 mph 1008.6mb 43f 43f
6:50pm 19.5ft 12s 9s 25 36 mph 1007.8mb 43f 43f
5:50pm 17.5ft 11s 8s 29 36 mph 1007.2mb 43f 43f
4:50pm 18ft 11s 8s 31 40 mph 1006.1mb 43f 43f
3:50pm 18ft 11s 8s 31 40 mph 1004.9mb 43f 43f
2:50pm 18ft 11s 8s 29 36 mph 1004mb 43f 43f
1:50pm 16.5ft 12s 8s 27 34 mph 1003.3mb 43f 43f
12:50pm 17ft 13s 8s 31 38 mph 1002.3mb 43f 43f
11:50am 17.5ft 13s 8s 29 38 mph 1001.6mb 43f 43f
10:50am 18.5ft 12s 8s 29 36 mph 1001mb 43f 43f
9:50am 17.5ft 12s 8s 27 34 mph 1000.6mb 43f 43f
8:50am 18ft 12s 8s 29 36 mph 1000.3mb 43f 43f
7:50am 17.5ft 13s 8s 27 36 mph 999.8mb 43f 43f
6:50am 16.5ft 11s 8s 27 38 mph 999.3mb 43f 41f
5:50am 16ft 12s 8s 27 36 mph 998.9mb 43f 43f
4:50am 16ft 12s 8s 27 34 mph 998.4mb 43f 42f
3:50am 16.5ft 13s 8s 29 36 mph 997.7mb 43f 43f
2:50am 16ft 11s 7s 31 38 mph 997.5mb 43f 43f
1:50am 16ft 11s 7s 31 38 mph 997.3mb 43f 43f
12:50am 16ft 11s 7s 31 40 mph 997mb 43f 42f
Sat 05/23 11:50pm 15ft 11s 7s 27 34 mph 996.7mb 43f 42f
10:50pm 16.5ft 11s 8s 27 36 mph 996.4mb 43f 42f
9:50pm 15ft 11s 8s 25 31 mph 996mb 43f 42f
8:50pm 15.5ft 12s 8s 29 36 mph 995.7mb 43f 42f
7:50pm 14.5ft 12s 8s 27 31 mph 995.5mb 43f 42f
6:50pm 15ft 9s 8s 25 29 mph 995.4mb 43f 42f
5:50pm 15ft 11s 8s 27 31 mph 995.4mb 43f 42f
4:50pm 14ft 11s 7s 25 31 mph 995.2mb 43f 42f
3:50pm 14ft 11s 7s 25 29 mph 994.8mb 43f 43f
2:50pm 15ft 11s 7s 25 29 mph 994.5mb 43f 43f
1:50pm 15ft 11s 8s 25 34 mph 994mb 43f 43f
12:50pm 14.5ft 11s 7s 27 31 mph 993.5mb 43f 43f
11:50am 15ft 11s 7s 27 34 mph 993mb 43f 41f
10:50am 13.5ft 9s 7s 27 31 mph 992.4mb 43f 43f
9:50am 14ft 11s 7s 27 34 mph 991.9mb 43f 43f
8:50am 15ft 11s 7s 27 34 mph 991.5mb 43f 43f
7:50am 14ft 11s 7s 27 31 mph 990.9mb 43f 42f
6:50am 13ft 11s 7s 27 34 mph 990mb 43f 43f
5:50am 12.5ft 11s 7s 25 31 mph 989.3mb 43f 43f
4:50am 14ft 11s 8s 27 31 mph 988.6mb 43f 43f
3:50am 15.5ft 11s 8s 22 29 mph 988.1mb 43f 44f
2:50am 13.5ft 11s 8s 22 27 mph 987.6mb 43f 44f
1:50am 15.5ft 11s 8s 20 27 mph 987.1mb 43f 43f
12:50am 15ft 11s 8s 20 22 mph 986.4mb 43f 43f
Fri 05/22 11:50pm 16ft 11s 8s 16 20 mph 986.1mb 43f 43f
10:50pm 15.5ft 11s 8s 18 25 mph 986.1mb 43f 43f
9:50pm 16.5ft 11s 8s 18 22 mph 986mb 43f 43f
8:50pm 17.5ft 11s 8s 22 27 mph 986.1mb 43f 43f
7:50pm 18ft 11s 8s 27 34 mph 986.6mb 43f 43f
6:50pm 16.5ft 11s 7s 31 38 mph 987.3mb 43f 43f
5:50pm 18.5ft 9s 7s 36 45 mph 988.7mb 43f 42f
4:50pm 19.5ft 8s 7s 40 47 mph 989.6mb 43f 42f
3:50pm 17ft 8s 7s 40 49 mph 990.6mb 43f 42f
2:50pm 15.5ft 9s 7s 40 49 mph 992.8mb 43f 42f